INDIA METEOROLOGICAL DEPARTMENT, R.M.C. NEW DELHI
Dated:24-04-2019
METARS


Agartala   
VEAT 240200Z 00000KT 3500 HZ NSC 29/21 Q1011 NOSIG=
Ahmedabad  
VAAH 240030Z 31005KT 4000 FU NSC 29/14 Q1009 TEMPO 3000=
Allahabad  
VEAB 240130Z 13008KT 5000 HZ SKC 28/20 Q1009 NOSIG=
Bangalore  
VOBL 240200Z VRB02KT 8000 FEW015 SCT080 25/20 Q1016 NOSIG=
Baroda     
VABO 240200Z 26004KT 6000 NSC 28/18 Q1010 NOSIG=
Bhopal     
VABP 240200Z 27006KT 6000 NSC 29/08 Q1013 NOSIG=
Bhubaneswar
VEBS 240200Z 00000KT 3000 BR FEW020 SCT100 28/28 Q1010 NOSIG=
Bhuntar    
VIBR 240200Z 00000KT 6000 SCT030 15/14 Q1019=
Chennai    
VOMM 240200Z 16004KT 5000 BR SCT020 SCT100 31/26 Q1011 NOSIG=
Coimbatore 
VOCB 240200Z 06004KT 4000 BR FEW015 BKN080 26/19 Q1013 NOSIG=
Colombo    
VCBI 240140Z 00000KT 9000 NSC 25/24 Q1010 NOSIG=
Delhi      
VIDP 240200Z 14007KT 3000 HZ FEW100 31/18 Q1010 NOSIG=
Dehradun   
VIDN 240200Z 03004KT 3000 HZ NSC 25/17 Q1013 =
Gauhati    
VEGT 240200Z 00000KT 3000 BR FEW018 27/24 Q1012 NOSIG=
Gaya       
VEGY 240200Z 09004KT 3000 HZ NSC 27/19 Q1009 =
Gaggal     
VIGG 240200Z 01002KT 5000 HZ SCT035 FEW040CB BKN080 24/15 Q1015=
Fursatganj 
VERB 240200Z 09005KT 3500 HZ NSC 27/19 Q1008=
Hyderabad  
VOHS 240200Z NIL=
Indore     
VAID 240200Z 28004KT 5000 HZ NSC 29/07 Q1013 NOSIG=
Jabalpur   
VAJB 240130Z 14004KT 4000 HZ NSC 28/08 Q1011=
Jaipur     
VIJP 240230Z 32006KT 2500 HZ SCT100 33/05 Q1011 NOSIG=
Kochi      
VOCI 240200Z 00000KT 3000 BR FEW015 BKN090 27/25 Q1010 NOSIG=
Kolkata    
VECC 240200Z 23005KT 3500 HZ FEW020 SCT100 28/25 Q1010 NOSIG=
Kozhikode  
VOCL 240200Z 07005KT 6000 FEW015 SCT080 25/22 Q1010 NOSIG=
Lucknow    
VILK 240200Z 10008KT 3000 HZ NSC 28/19 Q1010 NOSIG=
Madurai    
VOMD 240200Z 00000KT 5000 HZ SCT020 29/23 Q1011 BECMG 6000=
Mohanbari  
VEMN 240200Z 09007KT 5000 HZ NSC 26/18 Q1013 NOSIG=
Mumbai     
VABB 240200Z 34003KT 2500 BR SCT020 28/25 Q1011 BECMG 3000 BR=
Nagpur     
VANP 240200Z 00000KT 4000 HZ NSC 30/13 Q1011 NOSIG=
Patna      
VEPT 240200Z 09007KT 3500 HZ NSC 28/20 Q1009 NOSIG=
Raipur     
VERP 240130Z 23008KT 5000 HZ NSC 27/15 Q1011 NOSIG=
Shimla     
VISM 240130Z 00000KT 6000 HZ SCT100 21/13 Q1019=
Surat     
VASU 240200Z 00000KT 4000 HZ NSC 26/22 Q1010=
Ranchi     
VERC 240200Z 18008KT 4500 HZ NSC 25/17 Q1013 BECMG 5000 HZ=
Trichy     
VOTR 240200Z 08005KT 4000 BR FEW016 SCT100 29/25 Q1010 BECMG 5000 HZ=
Trivandrum 
VOTV 240200Z 05003KT 5000 HZ FEW015 BKN080 28/26 Q1010 NOSIG=
Udaipur    
VAUD 240200Z 02003KT 6000 NSC 27/11 Q1012 NOSIG=
Varanasi   
VEBN 240200Z 09005KT 2500 HZ NSC 28/19 Q1008 NOSIG=
Vizag      
VOVZ 240200Z VRB02KT 4000 BR NSC 29/26 Q1010 NOSIG=
Male       
VRMM 240200Z 32010KT 9999 SCT017 FEW018CB BKN270 30/26 Q1010 CB SSE NOSIG=
Gan        
VRMG 240200Z 29009KT 9999 FEW018TCU BKN260 30/25 Q1010 NOSIG=
Kathmandu  
VNKT 240200Z NIL=
Dhaka      
VGHS 240200Z NIL=
Colombo    
VCBI 240140Z 00000KT 9000 NSC 25/24 Q1010 NOSIG=
Karachi    
OPKC 240155Z 25009KT 4000 FU BKN020 26/23 Q1010 NOSIG=
Lahore     
OPLA 240155Z 04003KT 5000 FU SCT100 24/15 Q1010 BECMG 6000 RMK QFE984 RMK A29.82=
Gorakhpur  
VEGK 240130Z 10006KT 5000 HZ SKC 26/20 Q1010 NOSIG=
Agra       
VIAG 240130Z 09002KT 5000 DU FEW030 29/18 Q1009 NOSIG=
Bagdogra   
VEBD 240130Z 36003KT 6000 FEW250 26/19 Q1012 NOSIG=
Gwalior    
VIGR 240130Z VRB02KT 4000 DU FEW100 28/16 Q1009 NOSIG=
Pune       
VAPO 240130Z 28004KT 6000 SCT100 26/08 Q1014 NOSIG=
Jamnagar   
VAJM 240130Z 28006KT 6000 FEW015 26/23 Q1011 NOSIG=